Time;durP1;ratioP1;P1;durP2;ratioP2;P2;SDS_P1;SDS_P2;PMS_P1;PMS_P2;Temp;Humidity;BMP_temperature;BMP_pressure;BME280_temperature;BME280_humidity;BME280_pressure;Samples;Min_cycle;Max_cycle;Signal;HPM_P1;HPM_P2
2020/12/26 00:02:12;;;;;;;45.15;21.02;;;;;;;1.16;65.69;98645.34;5101388;28;20027;-63
2020/12/26 00:04:38;;;;;;;40.70;19.52;;;;;;;1.13;65.74;98629.72;5099059;28;20501;-64
2020/12/26 00:07:04;;;;;;;47.25;19.65;;;;;;;1.16;65.87;98640.09;5091714;28;20501;-64
2020/12/26 00:09:29;;;;;;;48.30;20.23;;;;;;;1.03;66.10;98618.91;5092041;28;20043;-64
2020/12/26 00:11:56;;;;;;;38.22;18.25;;;;;;;0.65;65.87;98556.19;5092079;28;20511;-64
2020/12/26 00:14:27;;;;;;;42.20;18.85;;;;;;;1.07;66.24;98622.19;5098632;28;20046;-63
2020/12/26 00:16:54;;;;;;;33.92;13.38;;;;;;;1.28;65.56;98639.34;5111689;28;20578;-63
2020/12/26 00:19:20;;;;;;;44.63;18.98;;;;;;;1.23;65.53;98646.69;5112899;28;20040;-65
2020/12/26 00:21:45;;;;;;;46.00;18.85;;;;;;;1.17;66.22;98647.06;5112650;28;20034;-65
2020/12/26 00:24:11;;;;;;;44.97;20.48;;;;;;;1.22;65.88;98644.16;5112030;28;20057;-64
2020/12/26 00:26:36;;;;;;;43.90;20.42;;;;;;;1.23;65.97;98641.44;5103439;28;20466;-64
2020/12/26 00:29:02;;;;;;;41.47;18.67;;;;;;;1.13;66.10;98632.38;5091921;28;20054;-61
2020/12/26 00:31:27;;;;;;;42.50;18.67;;;;;;;1.20;66.21;98628.41;5091943;28;20077;-64
2020/12/26 00:33:53;;;;;;;38.75;18.25;;;;;;;1.36;65.74;98644.16;5091674;28;20199;-62
2020/12/26 00:36:18;;;;;;;42.72;19.15;;;;;;;0.95;65.81;98563.19;5091607;28;20070;-64
2020/12/26 00:38:44;;;;;;;42.35;19.38;;;;;;;1.33;65.79;98639.06;5097506;28;20419;-63
2020/12/26 00:41:13;;;;;;;42.47;19.35;;;;;;;1.34;65.57;98650.44;5106372;28;20099;-64
2020/12/26 00:43:38;;;;;;;48.33;20.60;;;;;;;1.32;66.22;98633.88;5091157;28;20473;-64
2020/12/26 00:46:04;;;;;;;40.38;19.60;;;;;;;1.40;66.20;98642.16;5091315;28;20035;-65
2020/12/26 00:48:29;;;;;;;41.53;18.02;;;;;;;0.95;65.66;98557.91;5092934;28;20456;-64
2020/12/26 00:50:55;;;;;;;42.47;18.92;;;;;;;1.36;65.60;98619.56;5111560;28;20035;-67
2020/12/26 00:53:20;;;;;;;43.75;19.05;;;;;;;1.40;65.79;98619.28;5111502;28;20604;-64
2020/12/26 00:55:45;;;;;;;48.25;20.85;;;;;;;1.40;65.68;98618.41;5109753;28;20028;-64
2020/12/26 00:58:11;;;;;;;49.15;21.58;;;;;;;1.48;65.48;98618.81;5111364;28;20040;-64
2020/12/26 01:00:36;;;;;;;39.85;19.17;;;;;;;1.39;65.75;98603.53;5111128;28;20137;-63
2020/12/26 01:03:02;;;;;;;41.67;18.17;;;;;;;1.50;65.70;98638.03;5090895;28;20036;-65
2020/12/26 01:05:27;;;;;;;42.35;17.08;;;;;;;1.53;65.46;98622.00;5090777;28;20028;-64
2020/12/26 01:07:53;;;;;;;41.10;19.25;;;;;;;1.47;65.44;98613.63;5090706;28;20117;-64
2020/12/26 01:10:18;;;;;;;41.78;18.08;;;;;;;1.54;65.60;98618.41;5091282;28;20139;-64
2020/12/26 01:12:44;;;;;;;38.75;18.42;;;;;;;1.56;65.57;98605.97;5090463;28;20040;-64
2020/12/26 01:15:09;;;;;;;37.75;17.85;;;;;;;1.47;65.58;98597.78;5091402;28;20024;-64
2020/12/26 01:17:35;;;;;;;39.83;18.13;;;;;;;1.60;65.67;98613.69;5091042;28;20553;-64
2020/12/26 01:20:00;;;;;;;37.40;18.33;;;;;;;1.59;65.43;98610.22;5089349;28;20031;-64
2020/12/26 01:22:26;;;;;;;41.95;18.25;;;;;;;1.58;65.77;98622.56;5090641;28;20115;-65
2020/12/26 01:24:52;;;;;;;37.35;16.88;;;;;;;1.56;65.69;98600.69;5090823;28;20364;-66
2020/12/26 01:27:17;;;;;;;35.45;16.75;;;;;;;1.55;65.71;98606.91;5106950;28;20048;-67
2020/12/26 01:29:44;;;;;;;41.00;17.45;;;;;;;1.60;65.71;98606.63;5110718;28;20064;-66
2020/12/26 01:32:09;;;;;;;40.17;17.35;;;;;;;1.47;65.60;98585.47;5111007;28;20043;-66
2020/12/26 01:34:34;;;;;;;43.05;18.33;;;;;;;1.55;65.47;98600.78;5111181;28;20122;-65
2020/12/26 01:37:01;;;;;;;37.25;17.83;;;;;;;1.41;65.82;98596.38;5111007;28;20071;-67
2020/12/26 01:39:26;;;;;;;35.75;17.90;;;;;;;1.47;65.83;98590.75;5094866;28;20050;-62
2020/12/26 01:41:56;;;;;;;39.72;18.20;;;;;;;1.39;65.83;98598.25;5090679;28;20475;-63
2020/12/26 01:44:22;;;;;;;34.78;17.65;;;;;;;1.48;65.72;98597.72;5090939;28;20032;-64
2020/12/26 01:46:52;;;;;;;35.67;15.55;;;;;;;1.41;65.92;98597.25;5090409;28;20120;-63
2020/12/26 01:49:20;;;;;;;32.42;16.80;;;;;;;1.05;66.03;98527.38;5090080;28;20434;-64
2020/12/26 01:51:46;;;;;;;35.90;16.55;;;;;;;1.53;65.69;98611.44;5106869;28;20475;-64
2020/12/26 01:54:12;;;;;;;32.75;15.75;;;;;;;1.50;65.91;98595.81;5110686;28;20071;-64
2020/12/26 01:56:38;;;;;;;32.58;16.10;;;;;;;1.50;65.98;98601.09;5110601;28;20042;-63
2020/12/26 01:59:04;;;;;;;33.97;15.98;;;;;;;1.51;65.71;98588.72;5110457;28;20032;-64
2020/12/26 02:01:34;;;;;;;33.17;17.27;;;;;;;1.50;66.10;98595.81;5110330;28;20039;-64
2020/12/26 02:04:00;;;;;;;34.47;15.77;;;;;;;1.21;65.78;98536.97;5094805;28;20028;-62
2020/12/26 02:06:32;;;;;;;30.98;14.52;;;;;;;1.60;65.75;98595.22;5090436;28;20040;-64
2020/12/26 02:08:59;;;;;;;32.95;16.25;;;;;;;1.53;65.81;98592.97;5090039;28;20028;-57
2020/12/26 02:11:26;;;;;;;34.42;16.10;;;;;;;1.63;65.98;98592.38;5090196;28;20172;-65
2020/12/26 02:13:52;;;;;;;31.98;14.52;;;;;;;1.67;65.77;98618.50;5094369;28;20524;-64
2020/12/26 02:16:17;;;;;;;29.85;14.80;;;;;;;1.61;65.66;98581.94;5109810;28;20115;-64
2020/12/26 02:18:43;;;;;;;26.70;14.40;;;;;;;1.69;65.37;98592.00;5094788;28;20093;-63
2020/12/26 02:21:09;;;;;;;28.00;14.23;;;;;;;1.69;65.46;98587.56;5094113;28;20104;-64
2020/12/26 02:23:46;;;;;;;27.25;14.52;;;;;;;1.57;65.31;98554.91;5094125;28;20483;-63
2020/12/26 02:26:13;;;;;;;26.30;13.73;;;;;;;1.72;65.94;98587.38;5094259;28;20052;-66
2020/12/26 02:28:39;;;;;;;26.15;14.52;;;;;;;1.77;65.60;98584.44;5109118;28;20479;-64
2020/12/26 02:31:06;;;;;;;26.13;14.23;;;;;;;1.78;65.50;98588.78;5114152;28;20055;-64
2020/12/26 02:33:34;;;;;;;24.88;13.93;;;;;;;1.78;65.37;98586.13;5113991;28;20043;-65
2020/12/26 02:36:03;;;;;;;26.88;13.27;;;;;;;1.78;65.62;98582.63;5114736;28;20169;-61
2020/12/26 02:38:29;;;;;;;26.67;14.23;;;;;;;1.78;65.66;98580.84;5114373;28;20387;-63
2020/12/26 02:40:54;;;;;;;24.73;13.63;;;;;;;1.79;65.60;98579.91;5099086;28;20173;-64
2020/12/26 02:43:23;;;;;;;23.83;13.15;;;;;;;1.88;65.32;98606.66;5093729;28;20522;-64
2020/12/26 02:45:49;;;;;;;25.90;13.85;;;;;;;1.89;65.20;98601.28;5093433;28;20482;-62
2020/12/26 02:48:15;;;;;;;27.80;13.30;;;;;;;1.60;65.83;98539.81;5093169;28;20055;-63
2020/12/26 02:50:41;;;;;;;25.20;13.85;;;;;;;1.80;65.48;98575.47;5093771;28;20040;-63
2020/12/26 02:53:06;;;;;;;25.35;14.18;;;;;;;1.91;65.97;98587.97;5105811;28;20449;-65
2020/12/26 02:55:32;;;;;;;28.23;13.82;;;;;;;1.94;65.49;98588.63;5113627;28;20055;-62
2020/12/26 02:57:58;;;;;;;27.33;14.23;;;;;;;1.90;64.89;98581.00;5114203;28;20032;-65
2020/12/26 03:00:23;;;;;;;29.13;14.02;;;;;;;2.00;65.01;98593.50;5113734;28;20096;-64
2020/12/26 03:02:48;;;;;;;26.00;14.48;;;;;;;1.99;64.95;98580.41;5113595;28;20039;-63
2020/12/26 03:05:14;;;;;;;27.10;14.27;;;;;;;1.80;65.36;98560.50;5100969;28;20036;-65
2020/12/26 03:07:39;;;;;;;28.23;14.52;;;;;;;1.98;64.95;98581.38;5093061;28;20415;-64
2020/12/26 03:10:05;;;;;;;26.73;14.68;;;;;;;1.80;65.23;98571.03;5093107;28;20437;-64
2020/12/26 03:12:31;;;;;;;27.15;14.27;;;;;;;1.93;65.56;98580.78;5093319;28;20047;-61
2020/12/26 03:14:56;;;;;;;30.85;14.88;;;;;;;1.97;65.69;98587.59;5093513;28;20051;-64
2020/12/26 03:17:22;;;;;;;29.90;14.88;;;;;;;1.89;65.31;98558.19;5093786;28;20032;-63
2020/12/26 03:19:47;;;;;;;28.23;14.85;;;;;;;1.78;65.21;98551.81;5092793;28;20551;-65
2020/12/26 03:22:13;;;;;;;27.13;13.73;;;;;;;1.98;65.31;98587.47;5093449;28;20036;-64
2020/12/26 03:24:38;;;;;;;24.83;13.18;;;;;;;2.01;65.35;98583.81;5091440;28;20085;-63
2020/12/26 03:27:04;;;;;;;24.20;13.23;;;;;;;2.08;65.34;98585.09;5092735;28;20076;-62
2020/12/26 03:29:29;;;;;;;24.15;13.95;;;;;;;2.13;65.14;98577.69;5103458;28;20406;-64
2020/12/26 03:31:55;;;;;;;27.60;13.60;;;;;;;2.16;65.26;98576.66;5113663;28;20039;-64
2020/12/26 03:34:20;;;;;;;30.63;14.13;;;;;;;2.23;65.17;98593.78;5113239;28;20039;-63
2020/12/26 03:36:46;;;;;;;25.45;13.63;;;;;;;2.13;65.14;98576.88;5112769;28;20114;-63
2020/12/26 03:39:11;;;;;;;25.73;13.63;;;;;;;2.28;64.75;98586.41;5113647;28;20399;-64
2020/12/26 03:41:37;;;;;;;27.40;13.73;;;;;;;2.15;64.80;98559.13;5104072;28;20036;-64
2020/12/26 03:44:02;;;;;;;25.25;12.63;;;;;;;2.15;64.70;98575.81;5092898;28;20028;-63
2020/12/26 03:46:28;;;;;;;26.17;13.07;;;;;;;2.11;64.99;98555.84;5074366;28;20043;-64
2020/12/26 03:48:53;;;;;;;26.60;13.05;;;;;;;2.22;64.97;98576.25;5092034;28;20062;-65
2020/12/26 03:51:18;;;;;;;27.83;13.30;;;;;;;2.22;65.02;98576.25;5092786;28;20062;-64
2020/12/26 03:53:44;;;;;;;22.13;11.90;;;;;;;2.21;64.81;98574.56;5097435;28;20482;-62
2020/12/26 03:56:18;;;;;;;21.55;11.70;;;;;;;2.14;64.90;98560.06;5112625;28;20406;-65
2020/12/26 03:58:44;;;;;;;22.83;11.20;;;;;;;2.15;64.92;98556.50;5112887;28;20028;-65
2020/12/26 04:01:09;;;;;;;23.67;13.35;;;;;;;2.31;64.92;98576.59;5113021;28;20039;-64
2020/12/26 04:03:35;;;;;;;26.02;13.23;;;;;;;2.35;65.31;98578.09;5112661;28;20043;-63
2020/12/26 04:06:00;;;;;;;25.13;13.07;;;;;;;2.37;64.92;98582.31;5108820;28;20032;-65
2020/12/26 04:08:26;;;;;;;22.63;11.90;;;;;;;2.41;65.21;98596.16;5091983;28;20357;-65
2020/12/26 04:10:51;;;;;;;21.88;11.50;;;;;;;2.43;64.95;98575.78;5092374;28;20032;-63
2020/12/26 04:13:17;;;;;;;24.58;12.73;;;;;;;2.31;64.96;98560.75;5092180;28;20027;-65
2020/12/26 04:15:42;;;;;;;19.83;11.05;;;;;;;2.44;64.88;98580.09;5091465;28;20040;-63
2020/12/26 04:18:08;;;;;;;18.10;10.57;;;;;;;2.52;64.78;98587.50;5107913;28;20015;-62
2020/12/26 04:20:33;;;;;;;21.02;10.73;;;;;;;2.57;64.96;98585.41;5106201;28;20486;-64
2020/12/26 04:22:59;;;;;;;22.75;10.02;;;;;;;2.59;65.03;98580.84;5091848;28;20038;-63
2020/12/26 04:25:24;;;;;;;22.98;10.65;;;;;;;2.62;64.96;98578.00;5091383;28;20563;-62
2020/12/26 04:27:50;;;;;;;21.90;10.60;;;;;;;2.61;64.87;98573.66;5090383;28;20699;-65
2020/12/26 04:30:15;;;;;;;16.67;10.00;;;;;;;2.59;64.90;98562.38;5091393;28;20038;-64
2020/12/26 04:32:41;;;;;;;18.70;10.38;;;;;;;2.62;64.85;98570.06;5109460;28;20035;-63
2020/12/26 04:35:07;;;;;;;21.80;10.02;;;;;;;2.70;64.50;98586.28;5111554;28;20043;-63
2020/12/26 04:37:33;;;;;;;26.05;10.00;;;;;;;2.73;64.69;98580.78;5111835;28;20046;-64
2020/12/26 04:39:58;;;;;;;21.35;9.80;;;;;;;2.76;64.30;98586.81;5111876;28;20037;-63
2020/12/26 04:42:24;;;;;;;21.08;9.48;;;;;;;2.80;64.56;98583.00;5111591;28;20034;-62
2020/12/26 04:44:51;;;;;;;20.77;10.63;;;;;;;2.77;64.74;98581.41;5096352;28;20032;-63
2020/12/26 04:47:25;;;;;;;22.05;10.05;;;;;;;2.73;64.51;98583.41;5091540;28;20042;-65
2020/12/26 04:49:57;;;;;;;18.60;9.27;;;;;;;2.86;64.48;98599.28;5091055;28;20081;-64
2020/12/26 04:52:26;;;;;;;18.30;9.02;;;;;;;2.90;64.48;98592.00;5091495;28;20039;-64
2020/12/26 04:54:54;;;;;;;21.08;9.50;;;;;;;2.92;64.68;98581.31;5091387;28;20032;-62
2020/12/26 04:57:20;;;;;;;18.17;9.57;;;;;;;2.98;64.29;98589.66;5106013;28;20031;-63
2020/12/26 04:59:46;;;;;;;20.67;9.50;;;;;;;3.01;64.43;98593.88;5111728;28;20032;-65
2020/12/26 05:02:14;;;;;;;19.95;10.35;;;;;;;3.04;64.43;98592.84;5111369;28;20424;-64
2020/12/26 05:04:41;;;;;;;16.67;9.02;;;;;;;3.10;64.47;98587.09;5111180;28;20032;-62
2020/12/26 05:07:06;;;;;;;19.80;9.15;;;;;;;3.08;64.42;98596.94;5111517;28;20539;-63
2020/12/26 05:09:32;;;;;;;20.20;10.32;;;;;;;2.63;64.92;98523.38;5097977;28;20036;-63
2020/12/26 05:12:00;;;;;;;15.73;8.60;;;;;;;3.03;64.04;98612.28;5090504;28;20063;-63
2020/12/26 05:14:29;;;;;;;18.13;8.18;;;;;;;2.85;64.75;98580.88;5090653;28;20062;-64
2020/12/26 05:16:56;;;;;;;14.00;7.93;;;;;;;2.92;65.36;98603.31;5090667;28;20035;-63
2020/12/26 05:19:22;;;;;;;19.92;8.55;;;;;;;2.62;66.74;98615.00;5090749;28;20032;-67
2020/12/26 05:21:53;;;;;;;16.45;8.88;;;;;;;2.44;67.52;98619.72;5091341;28;20089;-63
2020/12/26 05:24:19;;;;;;;16.70;8.35;;;;;;;2.28;68.04;98617.25;5090249;28;20502;-65
2020/12/26 05:26:50;;;;;;;17.52;7.88;;;;;;;2.39;68.17;98635.03;5090636;28;20097;-62
2020/12/26 05:29:18;;;;;;;13.88;7.93;;;;;;;2.28;68.28;98623.38;5090455;28;20490;-64
2020/12/26 05:31:58;;;;;;;15.73;8.45;;;;;;;2.37;68.45;98636.94;5090350;28;20346;-62
2020/12/26 05:34:39;;;;;;;21.20;7.88;;;;;;;2.26;68.54;98622.63;5108835;28;20038;-64
2020/12/26 05:37:06;;;;;;;14.68;7.53;;;;;;;2.34;68.61;98640.63;5111725;28;20028;-62
2020/12/26 05:39:36;;;;;;;15.13;7.65;;;;;;;2.36;68.44;98646.66;5111013;28;20038;-62
2020/12/26 05:42:02;;;;;;;13.75;7.43;;;;;;;2.29;68.65;98642.72;5110864;28;20122;-62
2020/12/26 05:44:30;;;;;;;15.77;7.90;;;;;;;2.39;68.79;98646.44;5110954;28;20122;-57
2020/12/26 05:47:02;;;;;;;13.43;6.97;;;;;;;2.41;68.48;98655.16;5108490;28;20066;-58
2020/12/26 05:49:29;;;;;;;16.38;7.63;;;;;;;2.40;68.43;98652.59;5110372;28;20043;-59
2020/12/26 05:52:12;;;;;;;14.32;7.28;;;;;;;2.34;68.41;98658.28;5110497;28;20148;-60
2020/12/26 05:54:39;;;;;;;11.57;6.53;;;;;;;2.32;68.67;98644.34;5110671;28;20043;-65
2020/12/26 05:57:06;;;;;;;12.18;7.00;;;;;;;2.39;68.45;98656.19;5108054;28;20035;-63
2020/12/26 05:59:32;;;;;;;11.10;6.47;;;;;;;2.39;68.67;98664.09;5090142;28;20044;-61
2020/12/26 06:02:00;;;;;;;10.75;6.32;;;;;;;2.33;68.64;98657.41;5090548;28;20117;-61
2020/12/26 06:04:28;;;;;;;11.80;6.00;;;;;;;2.36;68.89;98672.22;5090248;28;20063;-62
2020/12/26 06:06:56;;;;;;;11.45;5.53;;;;;;;2.37;68.86;98672.13;5090503;28;20119;-65
2020/12/26 06:09:21;;;;;;;9.77;5.53;;;;;;;1.87;68.58;98600.53;5094825;28;20035;-67
2020/12/26 06:11:48;;;;;;;10.57;5.50;;;;;;;2.25;68.96;98686.13;5109366;28;20035;-67
2020/12/26 06:14:18;;;;;;;10.95;4.97;;;;;;;2.22;69.08;98688.97;5110476;28;20073;-67
2020/12/26 06:16:50;;;;;;;11.27;4.65;;;;;;;2.23;69.06;98709.16;5110561;28;20038;-68
2020/12/26 06:19:27;;;;;;;7.75;4.43;;;;;;;2.21;69.50;98708.41;5110030;28;20032;-68
2020/12/26 06:21:53;;;;;;;5.57;3.80;;;;;;;2.28;68.61;98721.09;5108194;28;20039;-69
2020/12/26 06:24:19;;;;;;;7.03;3.60;;;;;;;1.17;68.83;98532.84;5108400;28;20035;-70
2020/12/26 06:26:49;;;;;;;8.35;4.18;;;;;;;2.07;69.16;98699.56;5110334;28;20589;-68
2020/12/26 06:29:16;;;;;;;7.10;3.67;;;;;;;1.56;68.79;98624.44;5110279;28;20150;-68
2020/12/26 06:31:45;;;;;;;7.88;3.50;;;;;;;2.23;69.11;98725.84;5110328;28;20509;-68
2020/12/26 06:34:11;;;;;;;5.63;3.75;;;;;;;2.11;69.09;98702.88;5100625;28;20032;-66
2020/12/26 06:36:38;;;;;;;8.27;3.92;;;;;;;2.20;69.25;98706.72;5089908;28;20120;-68
2020/12/26 06:39:30;;;;;;;7.93;3.60;;;;;;;2.36;68.47;98709.22;5089395;28;20031;-66
2020/12/26 06:42:13;;;;;;;7.85;3.55;;;;;;;2.33;68.08;98722.63;5088872;28;20036;-69
2020/12/26 06:44:39;;;;;;;5.32;2.67;;;;;;;2.04;68.32;98694.47;5089550;28;20039;-67
2020/12/26 06:47:04;;;;;;;6.13;3.22;;;;;;;2.25;68.34;98733.69;5103522;28;20039;-67
2020/12/26 06:49:30;;;;;;;6.63;3.78;;;;;;;2.12;68.33;98720.41;5110159;28;20039;-66
2020/12/26 06:51:56;;;;;;;11.45;3.47;;;;;;;2.27;67.80;98745.00;5109927;28;20035;-66
2020/12/26 06:54:42;;;;;;;7.93;3.70;;;;;;;1.90;67.30;98671.59;5109930;28;20192;-66
2020/12/26 06:57:08;;;;;;;7.57;3.67;;;;;;;2.31;67.58;98759.69;5109922;28;20035;-67
2020/12/26 06:59:35;;;;;;;5.03;3.42;;;;;;;2.04;67.38;98712.97;5095569;28;20133;-67
2020/12/26 07:02:08;;;;;;;6.53;3.50;;;;;;;2.34;67.25;98756.84;5092385;28;20403;-66
2020/12/26 07:04:39;;;;;;;10.30;3.28;;;;;;;2.37;66.92;98751.34;5092053;28;20032;-66
2020/12/26 07:07:10;;;;;;;8.07;3.13;;;;;;;2.40;66.71;98753.81;5091564;28;20122;-66
2020/12/26 07:09:35;;;;;;;5.07;2.92;;;;;;;2.36;66.84;98735.63;5092456;28;20063;-67
2020/12/26 07:12:02;;;;;;;7.55;2.90;;;;;;;2.35;67.09;98749.78;5111742;28;20040;-67
2020/12/26 07:14:28;;;;;;;8.82;4.03;;;;;;;2.37;66.80;98742.59;5113495;28;20091;-67
2020/12/26 07:16:54;;;;;;;6.85;3.00;;;;;;;2.38;66.34;98760.16;5113267;28;20040;-67
2020/12/26 07:19:22;;;;;;;6.72;3.08;;;;;;;2.41;66.25;98749.38;5112960;28;20054;-68
2020/12/26 07:21:51;;;;;;;6.03;3.10;;;;;;;2.48;64.99;98744.56;5113446;28;20035;-67
2020/12/26 07:24:30;;;;;;;8.38;2.65;;;;;;;2.44;64.70;98754.47;5111105;28;20042;-66
2020/12/26 07:27:17;;;;;;;7.10;3.08;;;;;;;2.43;64.43;98748.34;5112985;28;20043;-66
2020/12/26 07:29:51;;;;;;;5.47;2.45;;;;;;;2.44;64.92;98749.19;5113357;28;20052;-70
2020/12/26 07:32:35;;;;;;;5.18;2.50;;;;;;;2.43;63.30;98748.34;5113012;28;20082;-65
2020/12/26 07:35:06;;;;;;;7.57;2.58;;;;;;;2.30;64.16;98747.44;5107349;28;20144;-66
2020/12/26 07:37:32;;;;;;;4.35;2.70;;;;;;;2.31;64.68;98761.50;5091340;28;20036;-66
2020/12/26 07:39:57;;;;;;;7.32;2.50;;;;;;;2.33;64.48;98760.44;5092729;28;20040;-67
2020/12/26 07:42:23;;;;;;;6.50;2.60;;;;;;;2.31;64.34;98758.84;5092704;28;20028;-66
2020/12/26 07:44:49;;;;;;;7.00;2.35;;;;;;;2.33;64.35;98747.22;5092994;28;20059;-67
2020/12/26 07:47:15;;;;;;;5.20;2.30;;;;;;;2.24;64.09;98739.91;5109997;28;20024;-68
2020/12/26 07:49:40;;;;;;;9.82;2.97;;;;;;;2.37;64.13;98759.28;5111618;28;20040;-67
2020/12/26 07:52:08;;;;;;;6.32;2.70;;;;;;;2.32;64.23;98737.59;5112637;28;20513;-67
2020/12/26 07:54:34;;;;;;;4.38;2.50;;;;;;;2.50;62.87;98759.34;5112992;28;20042;-68
2020/12/26 07:57:00;;;;;;;5.13;2.60;;;;;;;2.55;63.25;98761.69;5111919;28;20471;-71
2020/12/26 07:59:26;;;;;;;6.80;2.83;;;;;;;2.66;63.42;98763.66;5111314;28;20042;-68
2020/12/26 08:01:53;;;;;;;5.00;2.78;;;;;;;2.58;63.24;98751.78;5112680;28;20726;-68
2020/12/26 08:04:19;;;;;;;5.20;2.80;;;;;;;2.78;62.37;98772.56;5112366;28;20417;-68
2020/12/26 08:06:46;;;;;;;6.53;3.08;;;;;;;2.83;62.29;98775.75;5105370;27;20051;-71
2020/12/26 08:09:13;;;;;;;5.00;3.00;;;;;;;2.87;62.35;98777.25;5106535;27;20423;-70
2020/12/26 08:11:39;;;;;;;4.47;2.42;;;;;;;2.86;62.20;98762.34;5116293;27;20399;-68
2020/12/26 08:14:04;;;;;;;10.65;3.05;;;;;;;2.81;61.96;98743.28;5126801;27;20020;-67
2020/12/26 08:16:30;;;;;;;3.80;2.50;;;;;;;3.00;61.97;98757.00;5120088;27;20313;-66
2020/12/26 08:18:56;;;;;;;4.57;3.05;;;;;;;2.94;61.98;98757.41;5119813;27;20039;-69
2020/12/26 08:21:22;;;;;;;4.97;2.92;;;;;;;2.88;61.42;98736.63;5126029;27;20043;-68
2020/12/26 08:24:02;;;;;;;9.07;3.03;;;;;;;3.16;60.63;98761.25;5114259;27;20027;-63
2020/12/26 08:26:29;;;;;;;8.88;3.30;;;;;;;3.01;61.51;98724.31;5128130;27;20054;-67
2020/12/26 08:28:59;;;;;;;7.40;3.45;;;;;;;3.30;60.68;98769.09;5125350;27;20038;-66
2020/12/26 08:31:27;;;;;;;11.13;3.25;;;;;;;2.98;60.92;98700.72;5115238;27;20233;-66
2020/12/26 08:34:17;;;;;;;8.15;3.75;;;;;;;3.37;60.71;98763.38;5128688;27;20433;-78
2020/12/26 08:37:01;;;;;;;7.65;3.40;;;;;;;3.32;59.99;98739.03;5116359;27;20024;-67
2020/12/26 08:39:27;;;;;;;5.97;3.53;;;;;;;3.19;61.04;98742.53;5109881;28;20052;-62
2020/12/26 08:41:53;;;;;;;4.55;3.03;;;;;;;3.20;61.04;98746.88;5125497;27;20038;-68
2020/12/26 08:44:19;;;;;;;8.32;3.03;;;;;;;3.32;60.36;98754.91;5118125;27;20027;-69
2020/12/26 08:46:46;;;;;;;7.78;3.38;;;;;;;3.07;60.41;98701.91;5120919;27;20063;-68
2020/12/26 08:49:12;;;;;;;7.82;3.80;;;;;;;3.45;60.65;98771.66;5110889;27;20036;-67
2020/12/26 08:51:45;;;;;;;9.52;3.85;;;;;;;3.50;59.56;98772.19;5127922;27;20508;-65
2020/12/26 08:54:17;;;;;;;13.32;4.30;;;;;;;3.52;59.43;98775.56;5116471;27;20030;-65
2020/12/26 08:56:43;;;;;;;8.10;3.50;;;;;;;3.49;60.48;98772.28;5120616;27;20502;-66
2020/12/26 08:59:09;;;;;;;5.50;3.35;;;;;;;3.34;60.56;98753.00;5124992;27;20062;-66
2020/12/26 09:01:34;;;;;;;8.45;3.60;;;;;;;3.37;60.67;98753.66;5113363;27;20036;-72
2020/12/26 09:04:00;;;;;;;6.88;3.58;;;;;;;3.40;60.99;98785.19;5129439;27;20482;-71
2020/12/26 09:06:33;;;;;;;10.25;4.15;;;;;;;3.38;60.59;98780.97;5123162;27;20471;-73
2020/12/26 09:09:22;;;;;;;9.00;3.50;;;;;;;3.30;60.25;98776.19;5101434;27;20348;-68
2020/12/26 09:12:00;;;;;;;11.95;3.85;;;;;;;3.24;60.72;98772.16;5126818;27;20072;-64
2020/12/26 09:14:25;;;;;;;13.05;3.55;;;;;;;3.28;60.63;98792.16;5118749;27;20027;-69
2020/12/26 09:16:58;;;;;;;8.15;4.20;;;;;;;3.30;61.04;98789.44;5113035;27;20066;-65
2020/12/26 09:19:25;;;;;;;10.90;3.90;;;;;;;3.22;61.37;98792.59;5108439;27;20035;-64
2020/12/26 09:21:50;;;;;;;11.93;3.25;;;;;;;3.22;61.17;98781.13;5126105;27;20039;-64
2020/12/26 09:24:18;;;;;;;11.00;3.83;;;;;;;3.13;61.33;98777.31;5116978;27;20031;-68
2020/12/26 09:26:43;;;;;;;5.50;3.22;;;;;;;3.21;61.35;98785.59;5120194;27;20047;-71
2020/12/26 09:29:09;;;;;;;8.10;3.90;;;;;;;3.15;61.32;98796.59;5124641;27;20494;-72
2020/12/26 09:31:36;;;;;;;8.88;3.40;;;;;;;3.13;61.74;98791.41;5099904;27;20044;-74
2020/12/26 09:34:20;;;;;;;5.00;3.10;;;;;;;3.24;61.14;98795.13;5099905;27;20031;-68
2020/12/26 09:36:47;;;;;;;8.27;3.53;;;;;;;3.17;61.20;98802.63;5111904;27;20034;-66
2020/12/26 09:39:13;;;;;;;6.95;3.92;;;;;;;3.16;61.71;98803.59;5114848;27;20037;-68
2020/12/26 09:41:49;;;;;;;6.22;3.25;;;;;;;3.18;61.26;98793.75;5126788;27;20031;-65
2020/12/26 09:44:15;;;;;;;6.90;3.05;;;;;;;3.06;61.67;98786.63;5098832;27;20103;-65
2020/12/26 09:46:43;;;;;;;9.13;3.58;;;;;;;2.95;61.67;98769.69;5120244;27;20482;-63
2020/12/26 09:49:09;;;;;;;6.40;3.10;;;;;;;3.07;61.66;98794.47;5096903;27;20030;-62
2020/12/26 09:51:36;;;;;;;5.57;3.10;;;;;;;3.04;61.65;98788.50;5123360;27;20062;-66
2020/12/26 09:54:01;;;;;;;9.95;3.50;;;;;;;3.05;62.00;98788.44;5118507;27;20034;-64
2020/12/26 09:56:27;;;;;;;7.82;3.35;;;;;;;3.08;61.95;98798.78;5123398;27;20043;-65
2020/12/26 09:58:53;;;;;;;7.20;3.67;;;;;;;3.08;62.02;98790.00;5113835;27;20036;-65
2020/12/26 10:01:20;;;;;;;6.60;3.22;;;;;;;3.08;61.59;98787.34;5125308;27;20036;-64
2020/12/26 10:03:47;;;;;;;6.63;3.42;;;;;;;3.07;62.35;98786.53;5117636;28;20509;-64
2020/12/26 10:06:17;;;;;;;4.82;3.13;;;;;;;2.90;62.14;98765.63;5118538;27;20045;-66
2020/12/26 10:08:43;;;;;;;6.63;3.42;;;;;;;3.01;61.63;98795.69;5123958;28;20072;-66
2020/12/26 10:11:10;;;;;;;6.97;3.67;;;;;;;2.98;61.92;98785.34;5095382;28;20066;-65
2020/12/26 10:13:35;;;;;;;9.23;3.65;;;;;;;2.91;62.51;98777.91;5122997;27;20104;-65
2020/12/26 10:16:01;;;;;;;5.53;3.28;;;;;;;2.62;62.56;98725.16;5120811;28;20470;-63
2020/12/26 10:18:27;;;;;;;9.18;3.50;;;;;;;2.95;62.30;98774.09;5114950;27;20035;-62
2020/12/26 10:20:52;;;;;;;9.57;3.58;;;;;;;3.05;61.95;98780.50;5111373;28;20115;-63
2020/12/26 10:23:18;;;;;;;6.63;3.60;;;;;;;3.00;61.99;98766.72;5123697;28;20419;-64
2020/12/26 10:25:43;;;;;;;8.38;3.70;;;;;;;2.87;61.73;98740.22;5118019;28;20047;-66
2020/12/26 10:28:09;;;;;;;5.57;3.38;;;;;;;3.09;61.99;98787.28;5117495;27;20651;-65
2020/12/26 10:30:34;;;;;;;6.63;3.53;;;;;;;3.04;61.64;98783.22;5125279;28;20021;-66
2020/12/26 10:32:59;;;;;;;4.78;3.08;;;;;;;3.09;61.86;98786.41;5096887;27;20121;-65
2020/12/26 10:35:25;;;;;;;7.03;3.55;;;;;;;3.10;61.40;98790.75;5104815;27;20034;-66
2020/12/26 10:37:50;;;;;;;6.97;3.55;;;;;;;3.06;61.49;98786.63;5124125;27;20039;-63
2020/12/26 10:40:16;;;;;;;6.25;3.28;;;;;;;2.75;61.16;98746.34;5126542;27;20031;-65
2020/12/26 10:42:41;;;;;;;13.57;4.10;;;;;;;2.88;61.64;98778.94;5116988;27;20039;-63
2020/12/26 10:45:07;;;;;;;5.72;3.40;;;;;;;3.00;62.22;98783.44;5116358;27;20050;-61
2020/12/26 10:47:32;;;;;;;6.40;3.22;;;;;;;3.12;61.84;98802.94;5114356;28;20069;-62
2020/12/26 10:49:58;;;;;;;8.63;3.60;;;;;;;3.14;62.00;98810.78;5112426;28;20470;-61
2020/12/26 10:52:23;;;;;;;9.73;3.63;;;;;;;3.13;61.61;98798.47;5113578;28;20031;-60
2020/12/26 10:54:49;;;;;;;8.85;3.88;;;;;;;3.09;61.76;98813.72;5113875;27;20035;-63
2020/12/26 10:57:15;;;;;;;7.50;3.45;;;;;;;3.04;61.23;98796.44;5111964;27;20038;-61
2020/12/26 10:59:40;;;;;;;7.63;4.40;;;;;;;3.04;61.87;98797.31;5126512;27;20028;-62
2020/12/26 11:02:07;;;;;;;9.85;4.15;;;;;;;3.03;61.77;98805.34;5120327;27;20083;-60
2020/12/26 11:04:32;;;;;;;7.82;3.85;;;;;;;3.06;61.83;98803.34;5127998;27;20027;-64
2020/12/26 11:06:58;;;;;;;10.25;5.03;;;;;;;3.09;61.57;98804.91;5116850;27;20080;-61
2020/12/26 11:09:23;;;;;;;8.52;4.40;;;;;;;3.03;61.60;98782.41;5122291;27;20035;-62
2020/12/26 11:11:51;;;;;;;11.82;4.50;;;;;;;3.04;61.65;98788.50;5134500;27;20046;-62
2020/12/26 11:14:17;;;;;;;11.75;5.50;;;;;;;3.11;61.56;98790.66;5133648;27;20035;-62
2020/12/26 11:16:52;;;;;;;9.82;4.45;;;;;;;2.90;61.60;98755.91;5115831;27;20031;-60
2020/12/26 11:19:19;;;;;;;8.43;4.28;;;;;;;2.68;61.29;98725.59;5123068;27;20469;-66
2020/12/26 11:21:49;;;;;;;6.63;4.00;;;;;;;2.93;61.81;98768.94;5119418;27;20486;-61
2020/12/26 11:24:15;;;;;;;9.85;4.25;;;;;;;3.12;61.50;98805.56;5120853;27;20031;-62
2020/12/26 11:26:40;;;;;;;10.30;4.35;;;;;;;2.69;61.09;98745.81;5125793;27;20055;-60
2020/12/26 11:29:06;;;;;;;5.85;4.15;;;;;;;3.05;61.34;98798.16;5122190;27;20046;-60
2020/12/26 11:31:31;;;;;;;8.20;4.45;;;;;;;3.00;61.29;98796.66;5118275;27;20035;-59
2020/12/26 11:33:57;;;;;;;9.32;4.25;;;;;;;2.92;60.83;98795.47;5099787;27;20039;-60
2020/12/26 11:36:27;;;;;;;9.60;5.05;;;;;;;2.99;61.38;98812.59;5099687;27;20031;-59